Time;durP1;ratioP1;P1;durP2;ratioP2;P2;SDS_P1;SDS_P2;PMS_P1;PMS_P2;Temp;Humidity;BMP_temperature;BMP_pressure;BME280_temperature;BME280_humidity;BME280_pressure;Samples;Min_cycle;Max_cycle;Signal;HPM_P1;HPM_P2
2023/12/20 00:01:49;;;;;;;0.60;0.60;;;;;;;;;;4973495;28;20214;-78
2023/12/20 00:04:18;;;;;;;0.70;0.70;;;;;;;;;;4973565;28;20217;-79
2023/12/20 00:06:46;;;;;;;0.70;0.70;;;;;;;;;;4974168;28;20249;-78
2023/12/20 00:09:15;;;;;;;0.70;0.70;;;;;;;;;;4974205;28;20215;-78
2023/12/20 00:11:43;;;;;;;0.70;0.70;;;;;;;;;;4973972;28;20210;-78
2023/12/20 00:14:14;;;;;;;0.63;0.63;;;;;;;;;;4973589;28;20202;-78
2023/12/20 00:16:43;;;;;;;0.60;0.60;;;;;;;;;;4974143;28;20216;-78
2023/12/20 00:19:15;;;;;;;0.60;0.60;;;;;;;;;;4973993;28;20209;-78
2023/12/20 00:21:44;;;;;;;0.60;0.60;;;;;;;;;;4973787;28;20203;-79
2023/12/20 00:24:12;;;;;;;0.70;0.70;;;;;;;;;;4972925;28;20275;-79
2023/12/20 00:26:43;;;;;;;0.60;0.60;;;;;;;;;;4973620;28;20710;-78
2023/12/20 00:29:11;;;;;;;0.60;0.60;;;;;;;;;;4974089;28;20210;-78
2023/12/20 00:31:40;;;;;;;0.70;0.70;;;;;;;;;;4973390;28;20242;-78
2023/12/20 00:34:08;;;;;;;0.60;0.60;;;;;;;;;;4972963;28;20195;-78
2023/12/20 00:36:38;;;;;;;0.70;0.70;;;;;;;;;;4973336;28;20273;-78
2023/12/20 00:39:11;;;;;;;0.60;0.60;;;;;;;;;;4973741;28;20215;-78
2023/12/20 00:41:39;;;;;;;0.93;0.77;;;;;;;;;;4973337;28;20207;-78
2023/12/20 00:44:07;;;;;;;1.17;1.17;;;;;;;;;;4972675;28;20202;-78
2023/12/20 00:46:39;;;;;;;0.70;0.70;;;;;;;;;;4973221;28;20214;-78
2023/12/20 00:49:07;;;;;;;0.70;0.70;;;;;;;;;;4973399;28;20206;-78
2023/12/20 00:51:36;;;;;;;0.70;0.70;;;;;;;;;;4973333;28;20203;-78
2023/12/20 00:54:06;;;;;;;0.80;0.80;;;;;;;;;;4973018;28;20301;-78
2023/12/20 00:56:34;;;;;;;0.70;0.70;;;;;;;;;;4972922;28;20206;-78
2023/12/20 00:59:02;;;;;;;0.70;0.70;;;;;;;;;;4973299;28;20203;-79
2023/12/20 01:01:32;;;;;;;0.70;0.70;;;;;;;;;;4973294;28;20207;-79
2023/12/20 01:04:01;;;;;;;0.70;0.70;;;;;;;;;;4972852;28;20215;-79
2023/12/20 01:06:30;;;;;;;24.27;6.37;;;;;;;;;;4972546;28;20226;-78
2023/12/20 01:08:59;;;;;;;10.00;3.00;;;;;;;;;;4972894;28;20194;-78
2023/12/20 01:11:28;;;;;;;10.80;3.57;;;;;;;;;;4973060;28;20299;-78
2023/12/20 01:13:57;;;;;;;3.67;2.13;;;;;;;;;;4971732;28;20206;-79
2023/12/20 01:16:26;;;;;;;13.53;3.10;;;;;;;;;;4972532;28;20194;-78
2023/12/20 01:18:54;;;;;;;7.23;2.67;;;;;;;;;;4972947;28;20211;-78
2023/12/20 01:21:22;;;;;;;12.17;4.37;;;;;;;;;;4973026;28;20201;-79
2023/12/20 01:23:51;;;;;;;8.20;3.23;;;;;;;;;;4972686;28;20267;-78
2023/12/20 01:26:19;;;;;;;8.73;2.83;;;;;;;;;;4971956;28;20241;-79
2023/12/20 01:28:49;;;;;;;24.27;5.27;;;;;;;;;;4972993;28;20213;-78
2023/12/20 01:31:18;;;;;;;15.63;3.57;;;;;;;;;;4972959;28;20197;-78
2023/12/20 01:33:46;;;;;;;5.57;2.47;;;;;;;;;;4972458;28;20237;-78
2023/12/20 01:36:15;;;;;;;7.13;3.27;;;;;;;;;;4972227;28;20225;-79
2023/12/20 01:38:43;;;;;;;9.83;3.17;;;;;;;;;;4972871;28;20211;-78
2023/12/20 01:41:12;;;;;;;7.10;3.30;;;;;;;;;;4973011;28;20209;-78
2023/12/20 01:43:40;;;;;;;16.47;4.07;;;;;;;;;;4972208;28;20194;-78
2023/12/20 01:46:20;;;;;;;14.10;5.83;;;;;;;;;;4972140;28;20210;-78
2023/12/20 01:48:49;;;;;;;15.60;4.77;;;;;;;;;;4972638;28;20217;-78
2023/12/20 01:51:18;;;;;;;16.70;3.63;;;;;;;;;;4972464;28;20202;-79
2023/12/20 01:53:47;;;;;;;10.50;3.93;;;;;;;;;;4972702;28;20218;-78
2023/12/20 01:56:15;;;;;;;25.20;4.33;;;;;;;;;;4972070;28;20284;-78
2023/12/20 01:58:45;;;;;;;14.90;3.87;;;;;;;;;;4972315;28;20198;-78
2023/12/20 02:01:14;;;;;;;11.30;4.37;;;;;;;;;;4973173;28;20207;-79
2023/12/20 02:03:47;;;;;;;10.33;3.80;;;;;;;;;;4971945;28;20265;-78
2023/12/20 02:06:16;;;;;;;8.03;3.13;;;;;;;;;;4972388;28;20202;-78
2023/12/20 02:08:44;;;;;;;8.43;3.27;;;;;;;;;;4972412;28;20226;-78
2023/12/20 02:11:13;;;;;;;11.23;4.33;;;;;;;;;;4972631;28;20203;-78
2023/12/20 02:13:41;;;;;;;8.73;2.70;;;;;;;;;;4972079;28;20325;-79
2023/12/20 02:16:10;;;;;;;14.97;2.90;;;;;;;;;;4971901;28;20211;-78
2023/12/20 02:18:38;;;;;;;5.70;2.80;;;;;;;;;;4972255;28;20207;-78
2023/12/20 02:21:08;;;;;;;6.13;3.13;;;;;;;;;;4972653;28;20212;-78
2023/12/20 02:23:38;;;;;;;6.33;2.53;;;;;;;;;;4972325;28;20223;-78
2023/12/20 02:26:07;;;;;;;3.00;1.97;;;;;;;;;;4974955;28;20237;-78
2023/12/20 02:28:36;;;;;;;3.93;2.23;;;;;;;;;;4975840;28;20249;-78
2023/12/20 02:31:04;;;;;;;10.77;3.23;;;;;;;;;;4975956;28;20204;-78
2023/12/20 02:33:33;;;;;;;11.40;4.13;;;;;;;;;;4975333;28;20207;-78
2023/12/20 02:36:02;;;;;;;17.23;5.03;;;;;;;;;;4975273;28;20392;-78
2023/12/20 02:38:31;;;;;;;5.00;2.87;;;;;;;;;;4975520;28;20198;-78
2023/12/20 02:41:01;;;;;;;18.03;5.00;;;;;;;;;;4975708;28;20199;-78
2023/12/20 02:43:29;;;;;;;10.77;3.37;;;;;;;;;;4975731;28;20201;-78
2023/12/20 02:45:58;;;;;;;13.20;3.83;;;;;;;;;;4975185;28;20203;-78
2023/12/20 02:48:26;;;;;;;7.17;2.73;;;;;;;;;;4974986;28;20223;-78
2023/12/20 02:50:55;;;;;;;16.83;4.57;;;;;;;;;;4975422;28;20230;-78
2023/12/20 02:53:23;;;;;;;11.53;4.17;;;;;;;;;;4975396;28;20269;-78
2023/12/20 02:55:51;;;;;;;12.00;4.47;;;;;;;;;;4974935;28;20207;-78
2023/12/20 02:58:21;;;;;;;12.40;4.00;;;;;;;;;;4975111;28;20252;-78
2023/12/20 03:00:50;;;;;;;7.40;3.10;;;;;;;;;;4975136;28;20301;-78
2023/12/20 03:03:18;;;;;;;17.30;4.77;;;;;;;;;;4975126;28;20232;-78
2023/12/20 03:05:47;;;;;;;20.00;5.73;;;;;;;;;;4974693;28;20208;-78
2023/12/20 03:08:15;;;;;;;15.13;4.73;;;;;;;;;;4974821;28;20227;-78
2023/12/20 03:10:44;;;;;;;8.87;3.00;;;;;;;;;;4975422;28;20212;-78
2023/12/20 03:13:12;;;;;;;10.73;2.60;;;;;;;;;;4975194;28;20197;-78
2023/12/20 03:15:42;;;;;;;14.80;4.30;;;;;;;;;;4974782;28;20202;-78
2023/12/20 03:18:11;;;;;;;10.57;3.87;;;;;;;;;;4974785;28;20304;-78
2023/12/20 03:20:42;;;;;;;14.50;4.20;;;;;;;;;;4974975;28;20202;-78
2023/12/20 03:23:10;;;;;;;8.27;3.43;;;;;;;;;;4974906;28;20319;-78
2023/12/20 03:25:41;;;;;;;17.77;5.43;;;;;;;;;;4974437;28;20245;-78
2023/12/20 03:28:09;;;;;;;10.13;4.23;;;;;;;;;;4974416;28;20221;-78
2023/12/20 03:30:38;;;;;;;32.43;5.67;;;;;;;;;;4974676;28;20245;-78
2023/12/20 03:33:11;;;;;;;11.10;4.67;;;;;;;;;;4974927;28;20240;-78
2023/12/20 03:35:40;;;;;;;12.17;4.70;;;;;;;;;;4973428;28;20297;-78
2023/12/20 03:38:08;;;;;;;15.27;4.57;;;;;;;;;;4974186;28;20200;-78
2023/12/20 03:40:37;;;;;;;13.47;3.30;;;;;;;;;;4974563;28;20207;-78
2023/12/20 03:43:06;;;;;;;10.10;4.73;;;;;;;;;;4974486;28;20254;-78
2023/12/20 03:45:35;;;;;;;15.00;4.63;;;;;;;;;;4974060;28;20202;-79
2023/12/20 03:48:03;;;;;;;16.10;4.60;;;;;;;;;;4974079;28;20299;-78
2023/12/20 03:50:35;;;;;;;14.03;4.00;;;;;;;;;;4974484;28;20232;-78
2023/12/20 03:53:04;;;;;;;9.17;3.17;;;;;;;;;;4974047;28;20263;-78
2023/12/20 03:55:33;;;;;;;9.67;3.77;;;;;;;;;;4973836;28;20213;-78
2023/12/20 03:58:01;;;;;;;12.27;3.37;;;;;;;;;;4973669;28;20206;-79
2023/12/20 04:00:30;;;;;;;9.83;3.87;;;;;;;;;;4973884;28;20268;-78
2023/12/20 04:02:58;;;;;;;14.63;4.87;;;;;;;;;;4974144;28;20202;-78
2023/12/20 04:05:27;;;;;;;15.07;4.40;;;;;;;;;;4973614;28;20207;-78
2023/12/20 04:07:57;;;;;;;12.60;4.93;;;;;;;;;;4973519;28;20260;-78
2023/12/20 04:10:25;;;;;;;6.50;2.87;;;;;;;;;;4973973;28;20245;-79
2023/12/20 04:12:54;;;;;;;15.13;3.67;;;;;;;;;;4974075;28;20212;-78
2023/12/20 04:15:23;;;;;;;11.60;3.63;;;;;;;;;;4973755;28;20210;-78
2023/12/20 04:17:51;;;;;;;15.77;4.67;;;;;;;;;;4973089;28;20212;-78
2023/12/20 04:20:20;;;;;;;21.00;4.13;;;;;;;;;;4973262;28;20205;-78
2023/12/20 04:22:48;;;;;;;17.93;5.53;;;;;;;;;;4973683;28;20230;-78
2023/12/20 04:25:18;;;;;;;11.17;4.07;;;;;;;;;;4973481;28;20256;-78
2023/12/20 04:27:47;;;;;;;9.77;3.40;;;;;;;;;;4973235;28;20264;-78
2023/12/20 04:30:16;;;;;;;11.40;4.00;;;;;;;;;;4973655;28;20202;-78
2023/12/20 04:32:45;;;;;;;15.17;4.60;;;;;;;;;;4973622;28;20273;-78
2023/12/20 04:35:12;;;;;;;9.40;4.13;;;;;;;;;;4973453;28;20203;-78
2023/12/20 04:37:41;;;;;;;17.07;3.77;;;;;;;;;;4973365;28;20214;-78
2023/12/20 04:40:13;;;;;;;13.30;3.77;;;;;;;;;;4973378;28;20218;-79
2023/12/20 04:42:43;;;;;;;7.17;3.43;;;;;;;;;;4973281;28;20198;-78
2023/12/20 04:45:15;;;;;;;12.47;4.53;;;;;;;;;;4973301;28;20233;-78
2023/12/20 04:47:44;;;;;;;9.93;4.27;;;;;;;;;;4973225;28;20213;-78
2023/12/20 04:50:13;;;;;;;14.97;6.13;;;;;;;;;;4972979;28;20225;-78
2023/12/20 04:52:42;;;;;;;10.47;2.97;;;;;;;;;;4973532;28;20203;-78
2023/12/20 04:55:10;;;;;;;12.40;3.30;;;;;;;;;;4973063;28;20229;-78
2023/12/20 04:57:39;;;;;;;20.57;7.67;;;;;;;;;;4972919;28;20213;-78
2023/12/20 05:00:09;;;;;;;15.33;5.53;;;;;;;;;;4972993;28;20229;-78
2023/12/20 05:02:38;;;;;;;16.43;3.80;;;;;;;;;;4973249;28;20205;-79
2023/12/20 05:05:07;;;;;;;10.83;3.27;;;;;;;;;;4972980;28;20229;-78
2023/12/20 05:07:35;;;;;;;12.17;3.97;;;;;;;;;;4972835;28;20295;-78
2023/12/20 05:10:04;;;;;;;13.80;4.80;;;;;;;;;;4972819;28;20274;-78
2023/12/20 05:12:33;;;;;;;19.97;5.97;;;;;;;;;;4972914;28;20221;-78
2023/12/20 05:15:01;;;;;;;16.37;4.40;;;;;;;;;;4973058;28;20213;-78
2023/12/20 05:17:31;;;;;;;14.80;4.77;;;;;;;;;;4972861;28;20201;-78
2023/12/20 05:19:59;;;;;;;15.00;5.93;;;;;;;;;;4972507;28;20202;-78
2023/12/20 05:22:31;;;;;;;15.00;3.77;;;;;;;;;;4973117;28;20222;-78
2023/12/20 05:25:00;;;;;;;13.40;3.77;;;;;;;;;;4972812;28;20245;-78
2023/12/20 05:27:28;;;;;;;17.53;5.07;;;;;;;;;;4972293;28;20284;-78
2023/12/20 05:29:57;;;;;;;15.73;3.57;;;;;;;;;;4972454;28;20237;-78
2023/12/20 05:32:26;;;;;;;14.77;6.23;;;;;;;;;;4972842;28;20211;-78
2023/12/20 05:34:56;;;;;;;16.20;4.30;;;;;;;;;;4972761;28;20205;-78
2023/12/20 05:37:25;;;;;;;7.43;4.07;;;;;;;;;;4971643;28;20219;-78
2023/12/20 05:39:53;;;;;;;18.20;5.07;;;;;;;;;;4971582;28;20203;-78
2023/12/20 05:42:22;;;;;;;15.60;5.43;;;;;;;;;;4971919;28;20292;-78
2023/12/20 05:44:51;;;;;;;15.00;4.87;;;;;;;;;;4972160;28;20213;-78
2023/12/20 05:47:22;;;;;;;15.67;4.00;;;;;;;;;;4972308;28;20209;-78
2023/12/20 05:49:51;;;;;;;17.73;6.30;;;;;;;;;;4972101;28;20310;-78
2023/12/20 05:52:21;;;;;;;22.73;4.47;;;;;;;;;;4972533;28;20206;-78
2023/12/20 05:54:50;;;;;;;13.37;5.30;;;;;;;;;;4972690;28;20201;-78
2023/12/20 05:57:18;;;;;;;13.93;4.47;;;;;;;;;;4972585;28;20198;-78
2023/12/20 05:59:47;;;;;;;11.80;3.47;;;;;;;;;;4973303;28;20213;-78
2023/12/20 06:02:15;;;;;;;12.97;4.63;;;;;;;;;;4976230;28;20218;-78
2023/12/20 06:04:44;;;;;;;20.83;7.10;;;;;;;;;;4975678;28;20201;-78
2023/12/20 06:07:13;;;;;;;10.00;3.40;;;;;;;;;;4976307;28;20205;-78
2023/12/20 06:09:43;;;;;;;15.40;5.63;;;;;;;;;;4975282;28;20244;-78
2023/12/20 06:12:12;;;;;;;17.00;5.60;;;;;;;;;;4976183;28;20212;-78
2023/12/20 06:14:40;;;;;;;12.03;3.73;;;;;;;;;;4976307;28;20301;-79
2023/12/20 06:17:08;;;;;;;12.83;4.00;;;;;;;;;;4976049;28;20310;-79
2023/12/20 06:19:40;;;;;;;9.77;4.13;;;;;;;;;;4976113;28;20209;-78
2023/12/20 06:22:08;;;;;;;11.57;3.33;;;;;;;;;;4975531;28;20294;-78
2023/12/20 06:24:37;;;;;;;12.07;4.13;;;;;;;;;;4975919;28;20238;-78
2023/12/20 06:27:07;;;;;;;20.13;7.43;;;;;;;;;;4976103;28;20205;-78
2023/12/20 06:29:35;;;;;;;9.47;3.53;;;;;;;;;;4975428;28;20219;-78
2023/12/20 06:32:04;;;;;;;18.60;6.73;;;;;;;;;;4974110;28;20270;-78
2023/12/20 06:34:33;;;;;;;13.93;4.70;;;;;;;;;;4975707;28;20203;-79
2023/12/20 06:37:02;;;;;;;10.70;3.07;;;;;;;;;;4975674;28;20244;-78
2023/12/20 06:39:30;;;;;;;12.93;4.93;;;;;;;;;;4975036;28;20222;-78
2023/12/20 06:41:59;;;;;;;24.43;5.63;;;;;;;;;;4975590;28;20207;-78
2023/12/20 06:44:28;;;;;;;13.90;4.07;;;;;;;;;;4975693;28;20218;-78
2023/12/20 06:46:57;;;;;;;22.90;5.77;;;;;;;;;;4975508;28;20206;-78
2023/12/20 06:49:25;;;;;;;12.97;4.03;;;;;;;;;;4975036;28;20222;-78
2023/12/20 06:51:54;;;;;;;6.70;3.67;;;;;;;;;;4975563;28;20234;-78
2023/12/20 06:54:23;;;;;;;11.17;4.03;;;;;;;;;;4975163;28;20207;-78
2023/12/20 06:56:51;;;;;;;9.27;3.27;;;;;;;;;;4975351;28;20209;-78
2023/12/20 06:59:20;;;;;;;11.97;4.37;;;;;;;;;;4975037;28;20205;-78
2023/12/20 07:01:50;;;;;;;12.37;3.50;;;;;;;;;;4975144;28;20208;-79
2023/12/20 07:04:21;;;;;;;20.53;6.90;;;;;;;;;;4975382;28;20211;-79
2023/12/20 07:06:51;;;;;;;19.67;3.60;;;;;;;;;;4975214;28;20296;-78
2023/12/20 07:09:20;;;;;;;15.60;5.23;;;;;;;;;;4974812;28;20198;-79
2023/12/20 07:11:49;;;;;;;20.23;8.43;;;;;;;;;;4974332;28;20270;-78
2023/12/20 07:14:17;;;;;;;16.33;6.60;;;;;;;;;;4975078;28;20296;-78
2023/12/20 07:16:47;;;;;;;15.43;5.47;;;;;;;;;;4975060;28;20221;-78
2023/12/20 07:19:16;;;;;;;8.63;3.57;;;;;;;;;;4974542;28;20229;-78
2023/12/20 07:21:45;;;;;;;18.40;6.53;;;;;;;;;;4974776;28;20195;-78
2023/12/20 07:24:13;;;;;;;28.50;5.33;;;;;;;;;;4975192;28;20231;-78
2023/12/20 07:26:42;;;;;;;20.17;5.17;;;;;;;;;;4975059;28;20246;-77
2023/12/20 07:29:11;;;;;;;17.73;5.43;;;;;;;;;;4975130;28;20237;-78
2023/12/20 07:31:39;;;;;;;16.10;4.87;;;;;;;;;;4974297;28;20226;-78
2023/12/20 07:34:08;;;;;;;6.13;3.80;;;;;;;;;;4975097;28;20215;-79
2023/12/20 07:36:38;;;;;;;12.33;4.17;;;;;;;;;;4974835;28;20209;-78
2023/12/20 07:39:06;;;;;;;13.10;5.10;;;;;;;;;;4974352;28;20215;-79
2023/12/20 07:41:35;;;;;;;14.27;4.33;;;;;;;;;;4974272;28;20234;-78
2023/12/20 07:44:03;;;;;;;8.90;3.10;;;;;;;;;;4974054;28;20200;-78
2023/12/20 07:46:35;;;;;;;8.17;3.60;;;;;;;;;;4974295;28;20218;-78
2023/12/20 07:49:03;;;;;;;12.30;5.97;;;;;;;;;;4974138;28;20215;-78
2023/12/20 07:51:32;;;;;;;20.00;6.13;;;;;;;;;;4974555;28;20214;-79
2023/12/20 07:54:03;;;;;;;12.77;4.70;;;;;;;;;;4974575;28;20207;-78
2023/12/20 07:56:31;;;;;;;20.03;5.83;;;;;;;;;;4974162;28;20207;-78
2023/12/20 07:59:00;;;;;;;5.83;3.23;;;;;;;;;;4974364;28;20209;-78
2023/12/20 08:01:28;;;;;;;12.87;3.87;;;;;;;;;;4973703;28;20217;-79
2023/12/20 08:03:57;;;;;;;10.93;4.23;;;;;;;;;;4974106;28;20212;-78
2023/12/20 08:06:26;;;;;;;12.37;4.20;;;;;;;;;;4974027;28;20205;-78
2023/12/20 08:08:54;;;;;;;8.17;3.60;;;;;;;;;;4973969;28;20227;-78
2023/12/20 08:11:35;;;;;;;13.33;4.73;;;;;;;;;;4973558;28;20215;-78
2023/12/20 08:14:03;;;;;;;14.27;5.50;;;;;;;;;;4974005;28;20486;-78
2023/12/20 08:16:35;;;;;;;20.13;4.77;;;;;;;;;;4973794;28;20270;-78
2023/12/20 08:19:06;;;;;;;20.27;6.73;;;;;;;;;;4974055;28;20229;-79
2023/12/20 08:21:35;;;;;;;13.17;2.83;;;;;;;;;;4973371;28;20245;-79
2023/12/20 08:24:06;;;;;;;12.60;5.67;;;;;;;;;;4973718;28;20218;-78
2023/12/20 08:26:36;;;;;;;12.87;4.07;;;;;;;;;;4973617;28;20285;-78
2023/12/20 08:29:05;;;;;;;19.37;5.93;;;;;;;;;;4973939;28;20205;-78
2023/12/20 08:31:34;;;;;;;10.00;3.73;;;;;;;;;;4973154;28;20224;-78
2023/12/20 08:34:02;;;;;;;10.00;4.40;;;;;;;;;;4973784;28;20274;-79
2023/12/20 08:36:34;;;;;;;11.23;3.50;;;;;;;;;;4973271;28;20207;-78
2023/12/20 08:39:06;;;;;;;21.37;6.50;;;;;;;;;;4973940;28;20275;-78
2023/12/20 08:41:34;;;;;;;15.67;4.13;;;;;;;;;;4973256;28;20262;-77
2023/12/20 08:44:04;;;;;;;15.23;4.20;;;;;;;;;;4973629;28;20214;-78
2023/12/20 08:46:33;;;;;;;5.43;2.20;;;;;;;;;;4973589;28;20237;-78
2023/12/20 08:49:01;;;;;;;19.03;4.13;;;;;;;;;;4973473;28;20206;-78
2023/12/20 08:51:30;;;;;;;17.10;6.17;;;;;;;;;;4972467;28;20218;-85
2023/12/20 08:54:01;;;;;;;15.10;3.27;;;;;;;;;;4976220;28;20202;-84
2023/12/20 08:56:30;;;;;;;10.87;3.67;;;;;;;;;;4992550;28;20217;-85
2023/12/20 08:58:59;;;;;;;19.00;4.60;;;;;;;;;;4993415;28;20206;-85
2023/12/20 09:01:29;;;;;;;17.40;4.23;;;;;;;;;;4992270;28;20205;-85
2023/12/20 09:04:00;;;;;;;10.67;3.57;;;;;;;;;;4981265;28;20225;-85
2023/12/20 09:06:30;;;;;;;20.50;5.03;;;;;;;;;;4989720;28;20203;-86
2023/12/20 09:08:59;;;;;;;10.63;3.67;;;;;;;;;;4991967;28;20205;-85
2023/12/20 09:11:30;;;;;;;11.53;4.23;;;;;;;;;;4991508;28;20458;-85
2023/12/20 09:14:01;;;;;;;11.43;4.53;;;;;;;;;;4990950;28;20215;-86
2023/12/20 09:16:32;;;;;;;16.23;3.93;;;;;;;;;;4985781;28;20193;-86
2023/12/20 09:19:00;;;;;;;17.63;5.77;;;;;;;;;;4987666;28;20212;-85
2023/12/20 09:21:29;;;;;;;11.43;3.50;;;;;;;;;;4987662;28;20207;-85
2023/12/20 09:23:58;;;;;;;15.10;4.17;;;;;;;;;;4987569;28;20313;-86
2023/12/20 09:26:27;;;;;;;5.67;3.40;;;;;;;;;;4990815;28;20233;-85
2023/12/20 09:28:57;;;;;;;15.50;6.10;;;;;;;;;;4978441;28;20229;-86
2023/12/20 09:31:27;;;;;;;13.77;6.23;;;;;;;;;;4991398;28;20214;-86
2023/12/20 09:33:57;;;;;;;14.30;3.87;;;;;;;;;;4985507;28;20298;-86
2023/12/20 09:36:28;;;;;;;8.90;3.50;;;;;;;;;;4995357;28;20206;-85
2023/12/20 09:38:58;;;;;;;12.17;4.13;;;;;;;;;;4987144;28;20204;-86
2023/12/20 09:41:28;;;;;;;13.00;4.07;;;;;;;;;;4992463;28;20201;-86
2023/12/20 09:43:57;;;;;;;10.33;4.27;;;;;;;;;;4995415;28;20206;-86
2023/12/20 09:46:29;;;;;;;14.97;4.70;;;;;;;;;;4997270;28;20207;-86
2023/12/20 09:49:00;;;;;;;5.13;2.63;;;;;;;;;;4995844;28;20280;-87
2023/12/20 09:51:30;;;;;;;13.13;3.00;;;;;;;;;;4989307;28;20313;-85
2023/12/20 09:53:59;;;;;;;14.83;4.30;;;;;;;;;;4986868;28;20203;-87
2023/12/20 09:56:29;;;;;;;9.63;4.00;;;;;;;;;;4976981;28;20238;-87
2023/12/20 09:58:57;;;;;;;8.20;2.53;;;;;;;;;;4984739;28;20203;-86
2023/12/20 10:01:26;;;;;;;9.10;2.20;;;;;;;;;;4995100;28;20207;-85
2023/12/20 10:03:56;;;;;;;11.07;3.27;;;;;;;;;;4992284;28;20232;-87
2023/12/20 10:06:26;;;;;;;11.60;4.20;;;;;;;;;;4995180;28;20203;-87
2023/12/20 10:08:55;;;;;;;11.93;3.03;;;;;;;;;;4995377;28;20211;-87
2023/12/20 10:11:23;;;;;;;7.57;5.10;;;;;;;;;;4995212;28;20228;-86
2023/12/20 10:13:52;;;;;;;9.30;3.17;;;;;;;;;;4995224;28;20204;-87
2023/12/20 10:16:25;;;;;;;11.83;3.30;;;;;;;;;;4992266;28;20208;-84
2023/12/20 10:18:54;;;;;;;3.97;3.27;;;;;;;;;;4994464;28;20219;-86
2023/12/20 10:21:24;;;;;;;15.37;4.20;;;;;;;;;;4994403;28;20238;-87
2023/12/20 10:23:55;;;;;;;13.10;3.37;;;;;;;;;;4991924;28;20231;-84
2023/12/20 10:26:24;;;;;;;13.23;3.40;;;;;;;;;;4994245;28;20242;-84
2023/12/20 10:28:53;;;;;;;13.00;5.83;;;;;;;;;;4994941;28;20254;-85
2023/12/20 10:31:31;;;;;;;13.67;4.57;;;;;;;;;;4994391;28;20239;-85
2023/12/20 10:34:00;;;;;;;16.30;4.50;;;;;;;;;;4981387;28;20230;-85
2023/12/20 10:36:29;;;;;;;24.77;3.57;;;;;;;;;;4990187;28;20199;-86
2023/12/20 10:38:59;;;;;;;8.87;3.53;;;;;;;;;;4989838;28;20211;-87
2023/12/20 10:41:29;;;;;;;11.00;3.63;;;;;;;;;;4978955;28;20318;-87
2023/12/20 10:43:59;;;;;;;9.77;3.43;;;;;;;;;;4994671;28;20207;-86
2023/12/20 10:46:28;;;;;;;6.37;2.97;;;;;;;;;;4990228;28;20211;-87
2023/12/20 10:48:57;;;;;;;18.37;6.23;;;;;;;;;;4994077;28;20241;-86
2023/12/20 10:51:27;;;;;;;12.07;2.90;;;;;;;;;;4995523;28;20299;-87
2023/12/20 10:54:03;;;;;;;12.33;4.33;;;;;;;;;;4993668;28;20282;-87
2023/12/20 10:56:35;;;;;;;10.57;3.33;;;;;;;;;;4994878;28;20214;-85
2023/12/20 10:59:05;;;;;;;10.90;2.77;;;;;;;;;;4994448;28;20216;-87
2023/12/20 11:01:34;;;;;;;10.33;5.83;;;;;;;;;;4994374;28;20225;-86
2023/12/20 11:04:03;;;;;;;12.40;3.77;;;;;;;;;;4994426;28;20199;-85
2023/12/20 11:06:36;;;;;;;17.83;5.73;;;;;;;;;;4994722;28;20299;-85
2023/12/20 11:09:12;;;;;;;11.53;5.33;;;;;;;;;;4994894;28;20230;-85
2023/12/20 11:11:51;;;;;;;10.57;3.87;;;;;;;;;;4978994;28;20199;-87
2023/12/20 11:14:22;;;;;;;7.67;2.83;;;;;;;;;;4985119;28;20208;-86
2023/12/20 11:16:51;;;;;;;17.20;3.77;;;;;;;;;;4978761;28;20200;-86
2023/12/20 11:19:24;;;;;;;22.77;5.20;;;;;;;;;;4976655;28;20199;-85
2023/12/20 11:21:53;;;;;;;8.67;3.43;;;;;;;;;;4989871;28;20364;-86
2023/12/20 11:24:25;;;;;;;15.33;5.87;;;;;;;;;;4984075;28;20252;-84
2023/12/20 11:26:56;;;;;;;14.80;5.90;;;;;;;;;;4993639;28;20247;-87
2023/12/20 11:29:31;;;;;;;11.47;3.60;;;;;;;;;;4991886;28;20222;-87
2023/12/20 11:32:01;;;;;;;13.63;4.20;;;;;;;;;;4995051;28;20216;-87
2023/12/20 11:34:30;;;;;;;8.93;3.77;;;;;;;;;;4983464;28;20238;-86
2023/12/20 11:36:59;;;;;;;9.10;5.50;;;;;;;;;;4974739;28;20258;-87
2023/12/20 11:39:30;;;;;;;14.77;3.50;;;;;;;;;;4985823;28;20203;-86
2023/12/20 11:41:58;;;;;;;8.73;3.60;;;;;;;;;;4988332;28;20210;-86
2023/12/20 11:44:27;;;;;;;18.90;4.57;;;;;;;;;;4992659;28;20217;-87
2023/12/20 11:46:57;;;;;;;21.53;4.67;;;;;;;;;;4993236;28;20269;-86
2023/12/20 11:49:25;;;;;;;10.37;3.80;;;;;;;;;;4977981;28;20211;-86
2023/12/20 11:51:54;;;;;;;21.90;3.77;;;;;;;;;;4988374;28;20204;-87
2023/12/20 11:54:23;;;;;;;12.17;4.27;;;;;;;;;;4982550;28;20234;-86
2023/12/20 11:56:53;;;;;;;12.93;4.63;;;;;;;;;;4986504;28;20291;-86
2023/12/20 11:59:21;;;;;;;16.20;4.70;;;;;;;;;;4977720;28;20290;-82
2023/12/20 12:01:52;;;;;;;12.43;4.17;;;;;;;;;;4983190;28;20211;-85
2023/12/20 12:04:20;;;;;;;21.07;4.70;;;;;;;;;;4984699;28;20203;-83
2023/12/20 12:06:49;;;;;;;13.80;3.87;;;;;;;;;;4989788;28;20271;-86
2023/12/20 12:09:18;;;;;;;8.63;2.70;;;;;;;;;;4988248;28;20208;-86
2023/12/20 12:11:47;;;;;;;8.20;2.83;;;;;;;;;;4985839;28;20213;-85
2023/12/20 12:14:19;;;;;;;11.40;3.47;;;;;;;;;;4990196;28;20220;-85
2023/12/20 12:16:49;;;;;;;10.63;3.17;;;;;;;;;;4982945;28;20437;-85
2023/12/20 12:19:24;;;;;;;6.87;4.33;;;;;;;;;;4983399;28;20278;-85
2023/12/20 12:21:53;;;;;;;10.40;4.23;;;;;;;;;;4981938;28;20207;-86
2023/12/20 12:24:22;;;;;;;14.93;4.23;;;;;;;;;;4986187;28;20491;-82
2023/12/20 12:26:54;;;;;;;12.27;3.40;;;;;;;;;;4983864;28;20329;-84
2023/12/20 12:29:24;;;;;;;11.23;4.00;;;;;;;;;;4987506;28;20461;-86
2023/12/20 12:31:53;;;;;;;20.47;6.77;;;;;;;;;;4987695;28;20201;-85
2023/12/20 12:34:21;;;;;;;7.27;2.53;;;;;;;;;;4986471;28;20310;-81
2023/12/20 12:36:50;;;;;;;14.93;5.07;;;;;;;;;;4988601;28;20217;-86
2023/12/20 12:39:19;;;;;;;11.83;3.53;;;;;;;;;;4990767;28;20211;-84
2023/12/20 12:41:48;;;;;;;6.60;3.90;;;;;;;;;;4987952;28;20202;-84
2023/12/20 12:44:17;;;;;;;9.20;3.70;;;;;;;;;;4989039;28;20195;-87
2023/12/20 12:46:50;;;;;;;6.17;2.70;;;;;;;;;;4988898;28;20211;-87
2023/12/20 12:49:19;;;;;;;22.37;6.60;;;;;;;;;;4988277;28;20211;-88
2023/12/20 12:51:47;;;;;;;10.17;3.30;;;;;;;;;;4990078;28;20215;-87
2023/12/20 12:54:17;;;;;;;11.57;2.87;;;;;;;;;;4989242;28;20211;-85
2023/12/20 12:56:47;;;;;;;7.57;4.10;;;;;;;;;;4979205;28;20215;-88
2023/12/20 12:59:16;;;;;;;14.80;4.30;;;;;;;;;;4990404;28;20212;-89
2023/12/20 13:01:44;;;;;;;7.23;2.17;;;;;;;;;;4981673;28;20202;-85
2023/12/20 13:04:14;;;;;;;10.10;3.83;;;;;;;;;;4987202;28;20201;-87
2023/12/20 13:06:43;;;;;;;18.77;4.60;;;;;;;;;;4987697;28;20301;-86
2023/12/20 13:09:12;;;;;;;11.07;3.53;;;;;;;;;;4985945;28;20206;-89
2023/12/20 13:11:40;;;;;;;10.67;3.13;;;;;;;;;;4985481;28;20206;-88
2023/12/20 13:14:14;;;;;;;11.33;2.70;;;;;;;;;;4984135;28;20228;-85
2023/12/20 13:16:42;;;;;;;19.10;4.17;;;;;;;;;;4987633;28;20219;-86
2023/12/20 13:19:11;;;;;;;12.83;3.50;;;;;;;;;;4985703;28;20207;-88
2023/12/20 13:21:41;;;;;;;10.20;2.83;;;;;;;;;;4988759;28;20202;-87
2023/12/20 13:24:11;;;;;;;6.53;2.50;;;;;;;;;;4989087;28;20226;-79
2023/12/20 13:26:40;;;;;;;14.43;4.50;;;;;;;;;;4984893;28;20333;-80
2023/12/20 13:29:08;;;;;;;14.37;5.53;;;;;;;;;;4986688;28;20216;-79
2023/12/20 13:31:37;;;;;;;11.23;3.70;;;;;;;;;;4985934;28;20223;-80
2023/12/20 13:34:06;;;;;;;13.90;4.47;;;;;;;;;;4987188;28;20210;-78
2023/12/20 13:36:37;;;;;;;12.73;5.07;;;;;;;;;;4978478;28;20234;-79
2023/12/20 13:39:08;;;;;;;13.23;2.80;;;;;;;;;;4984025;28;20206;-80
2023/12/20 13:41:37;;;;;;;17.00;4.13;;;;;;;;;;4981443;28;20207;-78
2023/12/20 13:44:06;;;;;;;8.10;3.27;;;;;;;;;;4986269;28;20219;-77
2023/12/20 13:46:35;;;;;;;6.30;3.37;;;;;;;;;;4987716;28;20206;-77
2023/12/20 13:49:04;;;;;;;12.27;5.27;;;;;;;;;;4988957;28;20230;-77
2023/12/20 13:51:34;;;;;;;20.73;5.10;;;;;;;;;;4990313;28;20211;-77
2023/12/20 13:54:02;;;;;;;14.63;5.87;;;;;;;;;;4990501;28;20225;-78
2023/12/20 13:56:34;;;;;;;15.63;6.43;;;;;;;;;;4991012;28;20230;-77
2023/12/20 13:59:15;;;;;;;12.30;4.10;;;;;;;;;;4990281;28;20228;-77
2023/12/20 14:01:43;;;;;;;18.47;5.57;;;;;;;;;;4989723;28;20194;-78
2023/12/20 14:04:12;;;;;;;19.03;5.77;;;;;;;;;;4989759;28;20528;-77
2023/12/20 14:07:01;;;;;;;24.07;3.83;;;;;;;;;;4987218;28;20215;-78
2023/12/20 14:09:29;;;;;;;11.27;3.40;;;;;;;;;;4989667;28;20210;-79
2023/12/20 14:11:59;;;;;;;14.73;4.93;;;;;;;;;;4989398;28;20194;-77
2023/12/20 14:14:28;;;;;;;7.10;3.60;;;;;;;;;;4990119;28;20245;-77
2023/12/20 14:16:57;;;;;;;11.40;4.60;;;;;;;;;;4989219;28;20206;-78
2023/12/20 14:19:29;;;;;;;13.37;5.47;;;;;;;;;;4990649;28;20198;-77
2023/12/20 14:22:01;;;;;;;3.87;2.17;;;;;;;;;;4994294;28;20238;-77
2023/12/20 14:24:29;;;;;;;24.37;5.03;;;;;;;;;;4988809;28;20222;-77
2023/12/20 14:27:06;;;;;;;16.73;5.00;;;;;;;;;;4992118;28;20234;-78
2023/12/20 14:29:37;;;;;;;15.13;4.13;;;;;;;;;;4991942;28;20206;-78
2023/12/20 14:32:06;;;;;;;17.07;5.03;;;;;;;;;;4992687;28;20219;-77
2023/12/20 14:34:34;;;;;;;17.93;5.13;;;;;;;;;;4992888;28;20231;-77
2023/12/20 14:37:03;;;;;;;17.53;3.57;;;;;;;;;;4993236;28;20247;-78
2023/12/20 14:39:32;;;;;;;8.30;3.47;;;;;;;;;;4992980;28;20202;-77
2023/12/20 14:42:02;;;;;;;7.93;3.93;;;;;;;;;;4993267;28;20205;-78
2023/12/20 14:44:34;;;;;;;17.17;4.17;;;;;;;;;;4987388;28;20210;-79
2023/12/20 14:47:08;;;;;;;8.97;2.10;;;;;;;;;;4991739;28;20207;-78